sensor_id;sensor_type;location;lat;lon;timestamp;P1;durP1;ratioP1;P2;durP2;ratioP2
2712;SDS011;1366;47.988;7.856;2023-07-09T00:00:49;968.27;;;905.00;;
2712;SDS011;1366;47.988;7.856;2023-07-09T00:03:16;960.13;;;897.07;;
2712;SDS011;1366;47.988;7.856;2023-07-09T00:05:42;973.70;;;910.30;;
2712;SDS011;1366;47.988;7.856;2023-07-09T00:08:14;1009.88;;;945.00;;
2712;SDS011;1366;47.988;7.856;2023-07-09T00:10:44;953.80;;;891.13;;
2712;SDS011;1366;47.988;7.856;2023-07-09T00:13:10;948.37;;;885.40;;
2712;SDS011;1366;47.988;7.856;2023-07-09T00:15:36;972.50;;;908.93;;
2712;SDS011;1366;47.988;7.856;2023-07-09T00:18:02;981.83;;;917.97;;
2712;SDS011;1366;47.988;7.856;2023-07-09T00:20:28;961.77;;;898.53;;
2712;SDS011;1366;47.988;7.856;2023-07-09T00:22:54;1260.75;;;999.90;;
2712;SDS011;1366;47.988;7.856;2023-07-09T00:25:20;987.17;;;923.30;;
2712;SDS011;1366;47.988;7.856;2023-07-09T00:27:49;976.97;;;913.10;;
2712;SDS011;1366;47.988;7.856;2023-07-09T00:30:17;975.47;;;911.57;;
2712;SDS011;1366;47.988;7.856;2023-07-09T00:32:43;965.60;;;902.20;;
2712;SDS011;1366;47.988;7.856;2023-07-09T00:35:10;978.33;;;914.23;;
2712;SDS011;1366;47.988;7.856;2023-07-09T00:37:40;949.17;;;886.57;;
2712;SDS011;1366;47.988;7.856;2023-07-09T00:40:08;937.07;;;874.37;;
2712;SDS011;1366;47.988;7.856;2023-07-09T00:42:36;946.50;;;883.73;;
2712;SDS011;1366;47.988;7.856;2023-07-09T00:45:07;919.53;;;857.27;;
2712;SDS011;1366;47.988;7.856;2023-07-09T00:47:51;947.83;;;885.27;;
2712;SDS011;1366;47.988;7.856;2023-07-09T00:52:54;939.93;;;877.43;;
2712;SDS011;1366;47.988;7.856;2023-07-09T00:55:22;960.90;;;897.43;;
2712;SDS011;1366;47.988;7.856;2023-07-09T00:57:49;926.13;;;864.17;;
2712;SDS011;1366;47.988;7.856;2023-07-09T01:00:21;940.47;;;877.80;;
2712;SDS011;1366;47.988;7.856;2023-07-09T01:02:47;932.63;;;870.03;;
2712;SDS011;1366;47.988;7.856;2023-07-09T01:05:14;1087.22;;;999.90;;
2712;SDS011;1366;47.988;7.856;2023-07-09T01:07:42;947.43;;;884.83;;
2712;SDS011;1366;47.988;7.856;2023-07-09T01:10:11;933.40;;;870.83;;
2712;SDS011;1366;47.988;7.856;2023-07-09T01:12:37;961.37;;;898.10;;
2712;SDS011;1366;47.988;7.856;2023-07-09T01:15:03;1293.53;;;999.90;;
2712;SDS011;1366;47.988;7.856;2023-07-09T01:17:29;958.73;;;895.77;;
2712;SDS011;1366;47.988;7.856;2023-07-09T01:19:55;952.27;;;889.20;;
2712;SDS011;1366;47.988;7.856;2023-07-09T01:22:22;940.77;;;878.17;;
2712;SDS011;1366;47.988;7.856;2023-07-09T01:27:15;1188.20;;;999.90;;
2712;SDS011;1366;47.988;7.856;2023-07-09T01:29:42;967.67;;;904.50;;
2712;SDS011;1366;47.988;7.856;2023-07-09T01:32:13;943.03;;;880.60;;
2712;SDS011;1366;47.988;7.856;2023-07-09T01:34:39;952.17;;;888.67;;
2712;SDS011;1366;47.988;7.856;2023-07-09T01:37:06;956.57;;;893.67;;
2712;SDS011;1366;47.988;7.856;2023-07-09T01:39:32;938.93;;;876.60;;
2712;SDS011;1366;47.988;7.856;2023-07-09T01:41:58;910.03;;;848.33;;
2712;SDS011;1366;47.988;7.856;2023-07-09T01:44:24;944.73;;;881.83;;
2712;SDS011;1366;47.988;7.856;2023-07-09T01:46:54;924.87;;;862.67;;
2712;SDS011;1366;47.988;7.856;2023-07-09T01:49:20;1239.73;;;999.90;;
2712;SDS011;1366;47.988;7.856;2023-07-09T01:51:46;963.37;;;899.70;;
2712;SDS011;1366;47.988;7.856;2023-07-09T01:54:14;933.23;;;870.77;;
2712;SDS011;1366;47.988;7.856;2023-07-09T01:56:41;924.93;;;862.70;;
2712;SDS011;1366;47.988;7.856;2023-07-09T01:59:07;938.83;;;875.43;;
2712;SDS011;1366;47.988;7.856;2023-07-09T02:01:36;941.73;;;879.00;;
2712;SDS011;1366;47.988;7.856;2023-07-09T02:04:03;920.20;;;857.90;;
2712;SDS011;1366;47.988;7.856;2023-07-09T02:06:29;928.13;;;865.43;;
2712;SDS011;1366;47.988;7.856;2023-07-09T02:08:57;923.00;;;860.70;;
2712;SDS011;1366;47.988;7.856;2023-07-09T02:11:23;923.93;;;861.83;;
2712;SDS011;1366;47.988;7.856;2023-07-09T02:13:50;918.23;;;855.93;;
2712;SDS011;1366;47.988;7.856;2023-07-09T02:16:16;923.30;;;860.90;;
2712;SDS011;1366;47.988;7.856;2023-07-09T02:18:42;987.67;;;923.40;;
2712;SDS011;1366;47.988;7.856;2023-07-09T02:21:08;929.40;;;866.60;;
2712;SDS011;1366;47.988;7.856;2023-07-09T02:23:34;922.00;;;859.53;;
2712;SDS011;1366;47.988;7.856;2023-07-09T02:26:00;924.27;;;861.93;;
2712;SDS011;1366;47.988;7.856;2023-07-09T02:28:26;906.40;;;844.60;;
2712;SDS011;1366;47.988;7.856;2023-07-09T02:30:53;897.33;;;835.87;;
2712;SDS011;1366;47.988;7.856;2023-07-09T02:33:19;1196.65;;;999.90;;
2712;SDS011;1366;47.988;7.856;2023-07-09T02:35:45;964.27;;;900.63;;
2712;SDS011;1366;47.988;7.856;2023-07-09T02:38:11;945.77;;;883.00;;
2712;SDS011;1366;47.988;7.856;2023-07-09T02:40:38;1073.32;;;999.90;;
2712;SDS011;1366;47.988;7.856;2023-07-09T02:43:04;950.70;;;887.73;;
2712;SDS011;1366;47.988;7.856;2023-07-09T02:45:30;917.73;;;855.73;;
2712;SDS011;1366;47.988;7.856;2023-07-09T02:47:56;916.93;;;855.03;;
2712;SDS011;1366;47.988;7.856;2023-07-09T02:50:22;908.30;;;846.50;;
2712;SDS011;1366;47.988;7.856;2023-07-09T02:52:48;927.30;;;865.00;;
2712;SDS011;1366;47.988;7.856;2023-07-09T02:55:14;1247.25;;;999.90;;
2712;SDS011;1366;47.988;7.856;2023-07-09T02:57:40;946.17;;;882.97;;
2712;SDS011;1366;47.988;7.856;2023-07-09T03:00:07;933.43;;;870.77;;
2712;SDS011;1366;47.988;7.856;2023-07-09T03:02:33;1066.27;;;998.73;;
2712;SDS011;1366;47.988;7.856;2023-07-09T03:05:00;925.50;;;863.30;;
2712;SDS011;1366;47.988;7.856;2023-07-09T03:07:26;920.67;;;858.90;;
2712;SDS011;1366;47.988;7.856;2023-07-09T03:09:52;910.10;;;848.37;;
2712;SDS011;1366;47.988;7.856;2023-07-09T03:12:18;897.60;;;836.10;;
2712;SDS011;1366;47.988;7.856;2023-07-09T03:14:47;901.13;;;839.67;;
2712;SDS011;1366;47.988;7.856;2023-07-09T03:17:13;1175.65;;;999.90;;
2712;SDS011;1366;47.988;7.856;2023-07-09T03:19:39;937.60;;;874.67;;
2712;SDS011;1366;47.988;7.856;2023-07-09T03:22:05;920.40;;;858.03;;
2712;SDS011;1366;47.988;7.856;2023-07-09T03:24:31;1124.78;;;999.90;;
2712;SDS011;1366;47.988;7.856;2023-07-09T03:26:57;927.57;;;865.40;;
2712;SDS011;1366;47.988;7.856;2023-07-09T03:29:23;920.63;;;858.33;;
2712;SDS011;1366;47.988;7.856;2023-07-09T03:31:49;897.07;;;835.73;;
2712;SDS011;1366;47.988;7.856;2023-07-09T03:34:15;896.50;;;835.10;;
2712;SDS011;1366;47.988;7.856;2023-07-09T03:36:41;904.17;;;842.30;;
2712;SDS011;1366;47.988;7.856;2023-07-09T03:39:07;1169.68;;;999.90;;
2712;SDS011;1366;47.988;7.856;2023-07-09T03:41:33;936.13;;;873.37;;
2712;SDS011;1366;47.988;7.856;2023-07-09T03:43:59;929.97;;;867.70;;
2712;SDS011;1366;47.988;7.856;2023-07-09T03:46:26;1095.50;;;999.90;;
2712;SDS011;1366;47.988;7.856;2023-07-09T03:48:52;916.37;;;854.67;;
2712;SDS011;1366;47.988;7.856;2023-07-09T03:51:18;919.20;;;857.20;;
2712;SDS011;1366;47.988;7.856;2023-07-09T03:53:44;905.27;;;843.73;;
2712;SDS011;1366;47.988;7.856;2023-07-09T03:56:10;918.57;;;856.47;;
2712;SDS011;1366;47.988;7.856;2023-07-09T03:58:36;881.93;;;820.90;;
2712;SDS011;1366;47.988;7.856;2023-07-09T04:01:02;1157.57;;;999.90;;
2712;SDS011;1366;47.988;7.856;2023-07-09T04:03:28;942.00;;;879.30;;
2712;SDS011;1366;47.988;7.856;2023-07-09T04:05:54;907.87;;;846.20;;
2712;SDS011;1366;47.988;7.856;2023-07-09T04:08:20;1125.35;;;999.90;;
2712;SDS011;1366;47.988;7.856;2023-07-09T04:10:46;929.77;;;867.43;;
2712;SDS011;1366;47.988;7.856;2023-07-09T04:13:12;910.20;;;848.00;;
2712;SDS011;1366;47.988;7.856;2023-07-09T04:15:38;904.00;;;842.53;;
2712;SDS011;1366;47.988;7.856;2023-07-09T04:18:04;885.97;;;824.90;;
2712;SDS011;1366;47.988;7.856;2023-07-09T04:20:31;896.40;;;834.80;;
2712;SDS011;1366;47.988;7.856;2023-07-09T04:22:57;1164.90;;;999.90;;
2712;SDS011;1366;47.988;7.856;2023-07-09T04:25:23;933.07;;;870.60;;
2712;SDS011;1366;47.988;7.856;2023-07-09T04:27:49;902.83;;;841.40;;
2712;SDS011;1366;47.988;7.856;2023-07-09T04:30:15;1140.43;;;999.90;;
2712;SDS011;1366;47.988;7.856;2023-07-09T04:32:42;931.93;;;869.37;;
2712;SDS011;1366;47.988;7.856;2023-07-09T04:35:09;908.83;;;846.90;;
2712;SDS011;1366;47.988;7.856;2023-07-09T04:37:36;886.07;;;825.00;;
2712;SDS011;1366;47.988;7.856;2023-07-09T04:40:02;884.90;;;823.40;;
2712;SDS011;1366;47.988;7.856;2023-07-09T04:42:31;885.63;;;824.27;;
2712;SDS011;1366;47.988;7.856;2023-07-09T04:44:58;886.33;;;824.70;;
2712;SDS011;1366;47.988;7.856;2023-07-09T04:47:24;895.50;;;833.83;;
2712;SDS011;1366;47.988;7.856;2023-07-09T04:49:50;871.90;;;811.03;;
2712;SDS011;1366;47.988;7.856;2023-07-09T04:52:16;1127.32;;;999.90;;
2712;SDS011;1366;47.988;7.856;2023-07-09T04:54:42;907.93;;;846.37;;
2712;SDS011;1366;47.988;7.856;2023-07-09T04:57:09;909.13;;;847.43;;
2712;SDS011;1366;47.988;7.856;2023-07-09T04:59:36;907.00;;;844.83;;
2712;SDS011;1366;47.988;7.856;2023-07-09T05:02:02;895.70;;;834.43;;
2712;SDS011;1366;47.988;7.856;2023-07-09T05:04:29;880.97;;;819.77;;
2712;SDS011;1366;47.988;7.856;2023-07-09T05:06:56;1165.55;;;999.90;;
2712;SDS011;1366;47.988;7.856;2023-07-09T05:09:22;940.40;;;877.33;;
2712;SDS011;1366;47.988;7.856;2023-07-09T05:11:48;905.57;;;843.97;;
2712;SDS011;1366;47.988;7.856;2023-07-09T05:14:15;916.87;;;854.93;;
2712;SDS011;1366;47.988;7.856;2023-07-09T05:16:42;899.07;;;837.77;;
2712;SDS011;1366;47.988;7.856;2023-07-09T05:19:09;913.83;;;852.00;;
2712;SDS011;1366;47.988;7.856;2023-07-09T05:21:35;900.20;;;838.93;;
2712;SDS011;1366;47.988;7.856;2023-07-09T05:24:01;908.60;;;846.97;;
2712;SDS011;1366;47.988;7.856;2023-07-09T05:26:27;909.27;;;847.00;;
2712;SDS011;1366;47.988;7.856;2023-07-09T05:28:53;1169.18;;;999.90;;
2712;SDS011;1366;47.988;7.856;2023-07-09T05:31:21;949.40;;;886.30;;
2712;SDS011;1366;47.988;7.856;2023-07-09T05:33:47;914.13;;;852.23;;
2712;SDS011;1366;47.988;7.856;2023-07-09T05:36:13;1110.33;;;999.90;;
2712;SDS011;1366;47.988;7.856;2023-07-09T05:38:43;931.70;;;869.50;;
2712;SDS011;1366;47.988;7.856;2023-07-09T05:41:11;910.30;;;848.77;;
2712;SDS011;1366;47.988;7.856;2023-07-09T05:43:37;904.90;;;843.13;;
2712;SDS011;1366;47.988;7.856;2023-07-09T05:46:04;922.90;;;860.93;;
2712;SDS011;1366;47.988;7.856;2023-07-09T05:48:30;909.50;;;847.77;;
2712;SDS011;1366;47.988;7.856;2023-07-09T05:50:56;1184.28;;;999.90;;
2712;SDS011;1366;47.988;7.856;2023-07-09T05:53:23;957.80;;;894.40;;
2712;SDS011;1366;47.988;7.856;2023-07-09T05:55:52;937.80;;;875.37;;
2712;SDS011;1366;47.988;7.856;2023-07-09T05:58:19;1164.63;;;999.90;;
2712;SDS011;1366;47.988;7.856;2023-07-09T06:00:45;946.33;;;883.17;;
2712;SDS011;1366;47.988;7.856;2023-07-09T06:03:11;928.07;;;865.77;;
2712;SDS011;1366;47.988;7.856;2023-07-09T06:05:37;932.47;;;870.27;;
2712;SDS011;1366;47.988;7.856;2023-07-09T06:08:03;939.30;;;876.83;;
2712;SDS011;1366;47.988;7.856;2023-07-09T06:10:29;937.03;;;874.33;;
2712;SDS011;1366;47.988;7.856;2023-07-09T06:12:55;928.57;;;866.40;;
2712;SDS011;1366;47.988;7.856;2023-07-09T06:15:24;928.00;;;865.73;;
2712;SDS011;1366;47.988;7.856;2023-07-09T06:17:50;933.07;;;870.67;;
2712;SDS011;1366;47.988;7.856;2023-07-09T06:20:16;1179.50;;;999.90;;
2712;SDS011;1366;47.988;7.856;2023-07-09T06:22:42;960.23;;;897.17;;
2712;SDS011;1366;47.988;7.856;2023-07-09T06:25:08;966.63;;;903.03;;
2712;SDS011;1366;47.988;7.856;2023-07-09T06:27:34;959.17;;;895.93;;
2712;SDS011;1366;47.988;7.856;2023-07-09T06:30:00;950.23;;;887.27;;
2712;SDS011;1366;47.988;7.856;2023-07-09T06:32:26;958.83;;;895.23;;
2712;SDS011;1366;47.988;7.856;2023-07-09T06:34:52;968.37;;;904.80;;
2712;SDS011;1366;47.988;7.856;2023-07-09T06:37:18;950.23;;;887.37;;
2712;SDS011;1366;47.988;7.856;2023-07-09T06:39:44;959.87;;;896.53;;
2712;SDS011;1366;47.988;7.856;2023-07-09T06:42:10;1163.75;;;999.90;;
2712;SDS011;1366;47.988;7.856;2023-07-09T06:44:36;976.77;;;912.90;;
2712;SDS011;1366;47.988;7.856;2023-07-09T06:47:02;969.43;;;905.90;;
2712;SDS011;1366;47.988;7.856;2023-07-09T06:49:29;966.37;;;902.90;;
2712;SDS011;1366;47.988;7.856;2023-07-09T06:51:55;985.83;;;921.43;;
2712;SDS011;1366;47.988;7.856;2023-07-09T06:54:21;969.60;;;906.03;;
2712;SDS011;1366;47.988;7.856;2023-07-09T06:56:47;979.27;;;915.10;;
2712;SDS011;1366;47.988;7.856;2023-07-09T06:59:13;981.67;;;917.40;;
2712;SDS011;1366;47.988;7.856;2023-07-09T07:01:39;992.60;;;927.90;;
2712;SDS011;1366;47.988;7.856;2023-07-09T07:04:05;1183.50;;;999.90;;
2712;SDS011;1366;47.988;7.856;2023-07-09T07:06:31;997.50;;;932.93;;
2712;SDS011;1366;47.988;7.856;2023-07-09T07:08:57;999.23;;;934.53;;
2712;SDS011;1366;47.988;7.856;2023-07-09T07:11:23;984.40;;;920.13;;
2712;SDS011;1366;47.988;7.856;2023-07-09T07:13:54;999.97;;;935.13;;
2712;SDS011;1366;47.988;7.856;2023-07-09T07:16:21;994.60;;;930.30;;
2712;SDS011;1366;47.988;7.856;2023-07-09T07:18:47;995.00;;;930.37;;
2712;SDS011;1366;47.988;7.856;2023-07-09T07:21:13;995.10;;;930.57;;
2712;SDS011;1366;47.988;7.856;2023-07-09T07:23:39;997.13;;;932.53;;
2712;SDS011;1366;47.988;7.856;2023-07-09T07:26:05;1210.65;;;999.90;;
2712;SDS011;1366;47.988;7.856;2023-07-09T07:28:31;1018.43;;;953.17;;
2712;SDS011;1366;47.988;7.856;2023-07-09T07:30:58;1009.80;;;944.60;;
2712;SDS011;1366;47.988;7.856;2023-07-09T07:33:24;1005.97;;;941.30;;
2712;SDS011;1366;47.988;7.856;2023-07-09T07:35:50;1012.27;;;947.17;;
2712;SDS011;1366;47.988;7.856;2023-07-09T07:38:16;1084.10;;;999.90;;
2712;SDS011;1366;47.988;7.856;2023-07-09T07:40:45;1014.17;;;948.63;;
2712;SDS011;1366;47.988;7.856;2023-07-09T07:43:11;1006.07;;;941.17;;
2712;SDS011;1366;47.988;7.856;2023-07-09T07:45:41;1006.60;;;941.50;;
2712;SDS011;1366;47.988;7.856;2023-07-09T07:48:07;1185.33;;;999.90;;
2712;SDS011;1366;47.988;7.856;2023-07-09T07:50:33;1029.73;;;963.77;;
2712;SDS011;1366;47.988;7.856;2023-07-09T07:52:59;1009.13;;;943.80;;
2712;SDS011;1366;47.988;7.856;2023-07-09T07:55:25;1027.80;;;962.13;;
2712;SDS011;1366;47.988;7.856;2023-07-09T07:57:51;1016.60;;;951.03;;
2712;SDS011;1366;47.988;7.856;2023-07-09T08:00:17;1060.60;;;993.73;;
2712;SDS011;1366;47.988;7.856;2023-07-09T08:02:43;1013.57;;;948.30;;
2712;SDS011;1366;47.988;7.856;2023-07-09T08:05:09;1026.43;;;960.83;;
2712;SDS011;1366;47.988;7.856;2023-07-09T08:07:36;1030.30;;;964.47;;
2712;SDS011;1366;47.988;7.856;2023-07-09T08:10:02;1160.88;;;999.90;;
2712;SDS011;1366;47.988;7.856;2023-07-09T08:12:28;1036.67;;;970.27;;
2712;SDS011;1366;47.988;7.856;2023-07-09T08:14:54;1037.63;;;971.53;;
2712;SDS011;1366;47.988;7.856;2023-07-09T08:17:20;1043.93;;;977.33;;
2712;SDS011;1366;47.988;7.856;2023-07-09T08:19:47;1049.90;;;983.33;;
2712;SDS011;1366;47.988;7.856;2023-07-09T08:22:14;1039.63;;;972.93;;
2712;SDS011;1366;47.988;7.856;2023-07-09T08:24:41;1056.40;;;989.40;;
2712;SDS011;1366;47.988;7.856;2023-07-09T08:27:07;1039.97;;;973.70;;
2712;SDS011;1366;47.988;7.856;2023-07-09T08:29:34;1042.60;;;976.40;;
2712;SDS011;1366;47.988;7.856;2023-07-09T08:32:00;1035.20;;;969.30;;
2712;SDS011;1366;47.988;7.856;2023-07-09T08:34:26;1037.67;;;971.57;;
2712;SDS011;1366;47.988;7.856;2023-07-09T08:36:52;1039.67;;;973.67;;
2712;SDS011;1366;47.988;7.856;2023-07-09T08:39:19;1048.50;;;982.13;;
2712;SDS011;1366;47.988;7.856;2023-07-09T08:41:47;1040.40;;;973.90;;
2712;SDS011;1366;47.988;7.856;2023-07-09T08:49:12;1039.40;;;973.17;;
2712;SDS011;1366;47.988;7.856;2023-07-09T08:51:41;1050.23;;;983.63;;
2712;SDS011;1366;47.988;7.856;2023-07-09T08:54:53;1091.65;;;999.90;;
2712;SDS011;1366;47.988;7.856;2023-07-09T08:56:55;1048.60;;;981.70;;
2712;SDS011;1366;47.988;7.856;2023-07-09T08:59:21;1060.17;;;992.87;;
2712;SDS011;1366;47.988;7.856;2023-07-09T09:01:52;1076.93;;;999.90;;
2712;SDS011;1366;47.988;7.856;2023-07-09T09:04:38;1052.77;;;985.97;;
2712;SDS011;1366;47.988;7.856;2023-07-09T09:07:07;1055.20;;;988.40;;
2712;SDS011;1366;47.988;7.856;2023-07-09T09:09:40;1059.43;;;991.80;;
2712;SDS011;1366;47.988;7.856;2023-07-09T09:12:17;1069.30;;;997.67;;
2712;SDS011;1366;47.988;7.856;2023-07-09T09:14:48;1053.20;;;986.70;;
2712;SDS011;1366;47.988;7.856;2023-07-09T09:17:17;1229.15;;;999.90;;
2712;SDS011;1366;47.988;7.856;2023-07-09T09:19:56;1087.40;;;999.90;;
2712;SDS011;1366;47.988;7.856;2023-07-09T09:27:52;1082.23;;;999.90;;
2712;SDS011;1366;47.988;7.856;2023-07-09T09:30:19;1091.37;;;999.90;;
2712;SDS011;1366;47.988;7.856;2023-07-09T09:32:47;1090.33;;;999.90;;
2712;SDS011;1366;47.988;7.856;2023-07-09T09:35:14;1084.90;;;999.90;;
2712;SDS011;1366;47.988;7.856;2023-07-09T09:37:44;1098.00;;;999.90;;
2712;SDS011;1366;47.988;7.856;2023-07-09T09:40:10;1282.10;;;999.90;;
2712;SDS011;1366;47.988;7.856;2023-07-09T09:42:36;1118.43;;;999.90;;
2712;SDS011;1366;47.988;7.856;2023-07-09T09:45:02;1105.10;;;999.90;;
2712;SDS011;1366;47.988;7.856;2023-07-09T09:47:28;1099.27;;;999.90;;
2712;SDS011;1366;47.988;7.856;2023-07-09T09:49:55;1106.53;;;999.90;;
2712;SDS011;1366;47.988;7.856;2023-07-09T09:52:24;1259.72;;;999.90;;
2712;SDS011;1366;47.988;7.856;2023-07-09T09:54:53;1086.53;;;999.90;;
2712;SDS011;1366;47.988;7.856;2023-07-09T09:57:20;1101.00;;;999.90;;
2712;SDS011;1366;47.988;7.856;2023-07-09T09:59:47;1112.20;;;999.90;;
2712;SDS011;1366;47.988;7.856;2023-07-09T10:02:17;1101.07;;;999.90;;
2712;SDS011;1366;47.988;7.856;2023-07-09T10:04:43;1107.37;;;999.90;;
2712;SDS011;1366;47.988;7.856;2023-07-09T10:07:11;1100.83;;;999.90;;
2712;SDS011;1366;47.988;7.856;2023-07-09T10:10:14;1098.93;;;999.90;;
2712;SDS011;1366;47.988;7.856;2023-07-09T10:12:49;1102.73;;;999.90;;
2712;SDS011;1366;47.988;7.856;2023-07-09T10:15:19;1278.35;;;999.90;;
2712;SDS011;1366;47.988;7.856;2023-07-09T10:20:23;1135.23;;;999.90;;
2712;SDS011;1366;47.988;7.856;2023-07-09T10:33:08;1121.30;;;999.90;;
2712;SDS011;1366;47.988;7.856;2023-07-09T10:35:38;1139.53;;;999.90;;
2712;SDS011;1366;47.988;7.856;2023-07-09T10:40:43;1149.47;;;999.90;;
2712;SDS011;1366;47.988;7.856;2023-07-09T10:43:13;1145.83;;;999.90;;
2712;SDS011;1366;47.988;7.856;2023-07-09T10:45:41;1142.67;;;999.90;;
2712;SDS011;1366;47.988;7.856;2023-07-09T10:48:18;1150.27;;;999.90;;
2712;SDS011;1366;47.988;7.856;2023-07-09T10:50:47;1342.53;;;999.90;;
2712;SDS011;1366;47.988;7.856;2023-07-09T10:53:26;1155.77;;;999.90;;
2712;SDS011;1366;47.988;7.856;2023-07-09T10:56:00;1141.67;;;999.90;;
2712;SDS011;1366;47.988;7.856;2023-07-09T10:58:28;1150.47;;;999.90;;
2712;SDS011;1366;47.988;7.856;2023-07-09T11:00:56;1268.95;;;999.90;;
2712;SDS011;1366;47.988;7.856;2023-07-09T11:03:34;1154.13;;;999.90;;
2712;SDS011;1366;47.988;7.856;2023-07-09T11:06:02;1147.73;;;999.90;;
2712;SDS011;1366;47.988;7.856;2023-07-09T11:08:31;1157.17;;;999.90;;
2712;SDS011;1366;47.988;7.856;2023-07-09T11:11:00;1145.30;;;999.90;;
2712;SDS011;1366;47.988;7.856;2023-07-09T11:13:33;1352.63;;;999.90;;
2712;SDS011;1366;47.988;7.856;2023-07-09T11:16:01;1169.80;;;999.90;;
2712;SDS011;1366;47.988;7.856;2023-07-09T11:18:30;1170.97;;;999.90;;
2712;SDS011;1366;47.988;7.856;2023-07-09T11:21:01;1154.60;;;999.90;;
2712;SDS011;1366;47.988;7.856;2023-07-09T11:23:36;1151.90;;;999.90;;
2712;SDS011;1366;47.988;7.856;2023-07-09T11:28:35;1169.20;;;999.90;;
2712;SDS011;1366;47.988;7.856;2023-07-09T11:31:06;1151.37;;;999.90;;
2712;SDS011;1366;47.988;7.856;2023-07-09T11:33:32;1151.93;;;999.90;;
2712;SDS011;1366;47.988;7.856;2023-07-09T11:36:09;1336.63;;;999.90;;
2712;SDS011;1366;47.988;7.856;2023-07-09T11:38:39;1173.60;;;999.90;;
2712;SDS011;1366;47.988;7.856;2023-07-09T11:41:25;1145.83;;;999.90;;
2712;SDS011;1366;47.988;7.856;2023-07-09T11:43:52;1160.00;;;999.90;;
2712;SDS011;1366;47.988;7.856;2023-07-09T11:46:20;1161.47;;;999.90;;
2712;SDS011;1366;47.988;7.856;2023-07-09T11:48:47;1157.57;;;999.90;;
2712;SDS011;1366;47.988;7.856;2023-07-09T11:51:20;1159.57;;;999.90;;
2712;SDS011;1366;47.988;7.856;2023-07-09T11:53:52;1159.73;;;999.90;;
2712;SDS011;1366;47.988;7.856;2023-07-09T11:56:20;1154.93;;;999.90;;
2712;SDS011;1366;47.988;7.856;2023-07-09T11:58:54;1152.17;;;999.90;;
2712;SDS011;1366;47.988;7.856;2023-07-09T12:01:23;1146.77;;;999.90;;
2712;SDS011;1366;47.988;7.856;2023-07-09T12:03:50;1166.27;;;999.90;;
2712;SDS011;1366;47.988;7.856;2023-07-09T12:08:42;1163.03;;;999.90;;
2712;SDS011;1366;47.988;7.856;2023-07-09T12:13:54;1152.13;;;999.90;;
2712;SDS011;1366;47.988;7.856;2023-07-09T12:18:49;1168.43;;;999.90;;
2712;SDS011;1366;47.988;7.856;2023-07-09T12:21:15;1176.70;;;999.90;;
2712;SDS011;1366;47.988;7.856;2023-07-09T12:23:41;1174.73;;;999.90;;
2712;SDS011;1366;47.988;7.856;2023-07-09T12:26:15;1176.20;;;999.90;;
2712;SDS011;1366;47.988;7.856;2023-07-09T12:28:41;1160.50;;;999.90;;
2712;SDS011;1366;47.988;7.856;2023-07-09T12:31:13;1165.37;;;999.90;;
2712;SDS011;1366;47.988;7.856;2023-07-09T12:33:46;1155.57;;;999.90;;
2712;SDS011;1366;47.988;7.856;2023-07-09T12:36:13;1161.60;;;999.90;;
2712;SDS011;1366;47.988;7.856;2023-07-09T12:38:41;1169.60;;;999.90;;
2712;SDS011;1366;47.988;7.856;2023-07-09T12:41:14;1168.97;;;999.90;;
2712;SDS011;1366;47.988;7.856;2023-07-09T12:43:42;1177.70;;;999.90;;
2712;SDS011;1366;47.988;7.856;2023-07-09T12:46:08;1163.40;;;999.90;;
2712;SDS011;1366;47.988;7.856;2023-07-09T12:48:34;1173.50;;;999.90;;
2712;SDS011;1366;47.988;7.856;2023-07-09T12:51:00;1178.27;;;999.90;;
2712;SDS011;1366;47.988;7.856;2023-07-09T12:53:27;1182.07;;;999.90;;
2712;SDS011;1366;47.988;7.856;2023-07-09T12:55:54;1192.33;;;999.90;;
2712;SDS011;1366;47.988;7.856;2023-07-09T12:58:23;1334.35;;;999.90;;
2712;SDS011;1366;47.988;7.856;2023-07-09T13:00:51;1195.67;;;999.90;;
2712;SDS011;1366;47.988;7.856;2023-07-09T13:03:21;1184.63;;;999.90;;
2712;SDS011;1366;47.988;7.856;2023-07-09T13:05:51;1180.87;;;999.90;;
2712;SDS011;1366;47.988;7.856;2023-07-09T13:08:17;1182.30;;;999.90;;
2712;SDS011;1366;47.988;7.856;2023-07-09T13:10:44;1293.50;;;999.90;;
2712;SDS011;1366;47.988;7.856;2023-07-09T13:13:10;1193.27;;;999.90;;
2712;SDS011;1366;47.988;7.856;2023-07-09T13:15:41;1187.70;;;999.90;;
2712;SDS011;1366;47.988;7.856;2023-07-09T13:18:10;1178.57;;;999.90;;
2712;SDS011;1366;47.988;7.856;2023-07-09T13:20:37;1186.27;;;999.90;;
2712;SDS011;1366;47.988;7.856;2023-07-09T13:23:12;1347.97;;;999.90;;
2712;SDS011;1366;47.988;7.856;2023-07-09T13:25:39;1187.70;;;999.90;;
2712;SDS011;1366;47.988;7.856;2023-07-09T13:28:08;1204.17;;;999.90;;
2712;SDS011;1366;47.988;7.856;2023-07-09T13:30:36;1179.77;;;999.90;;
2712;SDS011;1366;47.988;7.856;2023-07-09T13:33:04;1195.43;;;999.90;;
2712;SDS011;1366;47.988;7.856;2023-07-09T13:35:34;1187.43;;;999.90;;
2712;SDS011;1366;47.988;7.856;2023-07-09T13:38:00;1185.33;;;999.90;;
2712;SDS011;1366;47.988;7.856;2023-07-09T13:40:26;1184.30;;;999.90;;
2712;SDS011;1366;47.988;7.856;2023-07-09T13:42:53;1187.80;;;999.90;;
2712;SDS011;1366;47.988;7.856;2023-07-09T13:45:21;1194.93;;;999.90;;
2712;SDS011;1366;47.988;7.856;2023-07-09T13:47:48;1186.07;;;999.90;;
2712;SDS011;1366;47.988;7.856;2023-07-09T13:50:15;1189.73;;;999.90;;
2712;SDS011;1366;47.988;7.856;2023-07-09T13:52:42;1192.23;;;999.90;;
2712;SDS011;1366;47.988;7.856;2023-07-09T13:55:29;1194.10;;;999.90;;
2712;SDS011;1366;47.988;7.856;2023-07-09T13:57:55;1191.03;;;999.90;;
2712;SDS011;1366;47.988;7.856;2023-07-09T14:00:21;1196.43;;;999.90;;
2712;SDS011;1366;47.988;7.856;2023-07-09T14:02:47;1192.30;;;999.90;;
2712;SDS011;1366;47.988;7.856;2023-07-09T14:05:13;1188.93;;;999.90;;
2712;SDS011;1366;47.988;7.856;2023-07-09T14:07:41;1208.07;;;999.90;;
2712;SDS011;1366;47.988;7.856;2023-07-09T14:10:10;1182.17;;;999.90;;
2712;SDS011;1366;47.988;7.856;2023-07-09T14:12:37;1359.28;;;999.90;;
2712;SDS011;1366;47.988;7.856;2023-07-09T14:15:05;1207.83;;;999.90;;
2712;SDS011;1366;47.988;7.856;2023-07-09T14:17:35;1217.87;;;999.90;;
2712;SDS011;1366;47.988;7.856;2023-07-09T14:20:01;1209.60;;;999.90;;
2712;SDS011;1366;47.988;7.856;2023-07-09T14:22:34;1209.57;;;999.90;;
2712;SDS011;1366;47.988;7.856;2023-07-09T14:25:02;1221.40;;;999.90;;
2712;SDS011;1366;47.988;7.856;2023-07-09T14:27:29;1349.37;;;999.90;;
2712;SDS011;1366;47.988;7.856;2023-07-09T14:29:55;1235.50;;;999.90;;
2712;SDS011;1366;47.988;7.856;2023-07-09T14:32:26;1225.77;;;999.90;;
2712;SDS011;1366;47.988;7.856;2023-07-09T14:34:56;1230.87;;;999.90;;
2712;SDS011;1366;47.988;7.856;2023-07-09T14:37:23;1341.70;;;999.90;;
2712;SDS011;1366;47.988;7.856;2023-07-09T14:39:49;1242.27;;;999.90;;
2712;SDS011;1366;47.988;7.856;2023-07-09T14:42:15;1246.90;;;999.90;;
2712;SDS011;1366;47.988;7.856;2023-07-09T14:44:41;1247.03;;;999.90;;
2712;SDS011;1366;47.988;7.856;2023-07-09T14:47:12;1232.77;;;999.90;;
2712;SDS011;1366;47.988;7.856;2023-07-09T14:49:40;1236.37;;;999.90;;
2712;SDS011;1366;47.988;7.856;2023-07-09T14:52:40;1283.57;;;999.90;;
2712;SDS011;1366;47.988;7.856;2023-07-09T14:54:59;1233.50;;;999.90;;
2712;SDS011;1366;47.988;7.856;2023-07-09T14:57:26;1258.20;;;999.90;;